Time;durP1;ratioP1;P1;durP2;ratioP2;P2;SDS_P1;SDS_P2;PMS_P1;PMS_P2;Temp;Humidity;BMP_temperature;BMP_pressure;BME280_temperature;BME280_humidity;BME280_pressure;Samples;Min_cycle;Max_cycle;Signal;HPM_P1;HPM_P2
2021/12/29 00:00:47;;;;;;;19.10;8.33;;;;;;;;;;6086155;23;20225;-93
2021/12/29 00:03:53;;;;;;;18.83;7.50;;;;;;;;;;6069783;23;20239;-93
2021/12/29 00:06:58;;;;;;;20.60;8.37;;;;;;;;;;6086218;23;20158;-92
2021/12/29 00:10:09;;;;;;;27.10;8.53;;;;;;;;;;6087461;23;20162;-93
2021/12/29 00:13:15;;;;;;;20.80;7.63;;;;;;;;;;6086553;23;20166;-93
2021/12/29 00:16:21;;;;;;;26.73;8.50;;;;;;;;;;6084872;23;20179;-92
2021/12/29 00:19:26;;;;;;;22.77;7.80;;;;;;;;;;6086524;23;20162;-93
2021/12/29 00:22:31;;;;;;;23.67;8.00;;;;;;;;;;6085048;23;20206;-91
2021/12/29 00:25:39;;;;;;;28.73;9.53;;;;;;;;;;6085059;23;20170;-92
2021/12/29 00:28:44;;;;;;;20.37;7.63;;;;;;;;;;6084944;23;20217;-93
2021/12/29 00:31:50;;;;;;;17.00;7.43;;;;;;;;;;6084649;23;20247;-93
2021/12/29 00:35:18;;;;;;;17.13;6.17;;;;;;;;;;6085989;23;20175;-92
2021/12/29 00:38:42;;;;;;;9.27;3.60;;;;;;;;;;6086787;23;20185;-91
2021/12/29 00:41:52;;;;;;;7.53;3.10;;;;;;;;;;6088473;23;20170;-94
2021/12/29 00:45:16;;;;;;;10.70;3.13;;;;;;;;;;6116447;23;20169;-92
2021/12/29 00:48:24;;;;;;;7.87;2.87;;;;;;;;;;6096274;23;20240;-93
2021/12/29 00:51:29;;;;;;;8.60;2.67;;;;;;;;;;6099083;23;20166;-92
2021/12/29 00:54:35;;;;;;;6.87;3.10;;;;;;;;;;6098773;23;20186;-93
2021/12/29 00:57:42;;;;;;;6.87;2.80;;;;;;;;;;6098226;23;20165;-93
2021/12/29 01:00:51;;;;;;;6.47;2.77;;;;;;;;;;6095591;23;20190;-94
2021/12/29 01:03:56;;;;;;;4.83;2.40;;;;;;;;;;6095873;23;20186;-93
2021/12/29 01:07:01;;;;;;;4.67;2.57;;;;;;;;;;6098121;23;20174;-93
2021/12/29 01:10:06;;;;;;;4.80;3.00;;;;;;;;;;6098424;23;20238;-92
2021/12/29 01:13:19;;;;;;;9.43;3.13;;;;;;;;;;6114158;23;20186;-93
2021/12/29 01:16:38;;;;;;;7.87;2.77;;;;;;;;;;6096109;23;20170;-92
2021/12/29 01:19:43;;;;;;;7.00;3.00;;;;;;;;;;6095330;23;20162;-93
2021/12/29 01:22:50;;;;;;;8.50;2.40;;;;;;;;;;6096318;23;20186;-93
2021/12/29 01:25:55;;;;;;;12.37;3.50;;;;;;;;;;6097425;23;20215;-92
2021/12/29 01:29:02;;;;;;;7.97;3.10;;;;;;;;;;6097769;23;20505;-92
2021/12/29 01:32:07;;;;;;;8.50;2.90;;;;;;;;;;6099480;23;20183;-94
2021/12/29 01:35:17;;;;;;;6.67;3.27;;;;;;;;;;6114202;23;20185;-91
2021/12/29 01:38:23;;;;;;;6.57;2.93;;;;;;;;;;6097742;23;20149;-93
2021/12/29 01:41:28;;;;;;;6.43;2.40;;;;;;;;;;6113775;23;20506;-94
2021/12/29 01:44:36;;;;;;;6.47;1.70;;;;;;;;;;6097912;23;20220;-93
2021/12/29 01:47:43;;;;;;;6.97;2.00;;;;;;;;;;6113605;23;20169;-92
2021/12/29 01:50:51;;;;;;;5.40;1.70;;;;;;;;;;6097726;23;20219;-91
2021/12/29 01:54:04;;;;;;;5.57;1.40;;;;;;;;;;6111820;23;20182;-94
2021/12/29 01:57:11;;;;;;;3.03;1.30;;;;;;;;;;6097285;23;20174;-91
2021/12/29 02:00:20;;;;;;;3.70;1.17;;;;;;;;;;6116765;23;20169;-93
2021/12/29 02:03:28;;;;;;;4.50;1.00;;;;;;;;;;6115917;23;20177;-94
2021/12/29 02:06:34;;;;;;;6.03;1.10;;;;;;;;;;6099404;23;20169;-93
2021/12/29 02:09:40;;;;;;;2.87;0.90;;;;;;;;;;6113995;23;20161;-93
2021/12/29 02:12:46;;;;;;;4.90;1.37;;;;;;;;;;6115863;23;20178;-93
2021/12/29 02:15:53;;;;;;;3.87;1.53;;;;;;;;;;6116737;23;20191;-93
2021/12/29 02:18:59;;;;;;;6.30;1.97;;;;;;;;;;6099047;23;20224;-92
2021/12/29 02:22:19;;;;;;;4.47;1.50;;;;;;;;;;6097940;23;20233;-93
2021/12/29 02:25:46;;;;;;;5.63;1.70;;;;;;;;;;6115329;23;20223;-93
2021/12/29 02:28:51;;;;;;;3.70;1.60;;;;;;;;;;6115126;23;20218;-92
2021/12/29 02:31:56;;;;;;;3.20;1.40;;;;;;;;;;6096887;23;20166;-92
2021/12/29 02:35:08;;;;;;;2.97;1.50;;;;;;;;;;6098879;23;20225;-92
2021/12/29 02:38:22;;;;;;;9.20;1.80;;;;;;;;;;6097458;23;20162;-91
2021/12/29 02:41:30;;;;;;;5.97;1.70;;;;;;;;;;6113093;23;20174;-93
2021/12/29 02:44:40;;;;;;;3.73;1.83;;;;;;;;;;6112845;23;20217;-94
2021/12/29 02:47:46;;;;;;;10.40;2.00;;;;;;;;;;6096324;23;20166;-92
2021/12/29 02:50:59;;;;;;;5.17;2.40;;;;;;;;;;6112711;23;20166;-93
2021/12/29 02:54:06;;;;;;;7.03;2.00;;;;;;;;;;6095756;23;20174;-92
2021/12/29 02:57:12;;;;;;;3.60;1.47;;;;;;;;;;6073107;23;20190;-93
2021/12/29 03:00:18;;;;;;;9.70;2.20;;;;;;;;;;6098328;23;20173;-91
2021/12/29 03:03:24;;;;;;;4.93;2.00;;;;;;;;;;6100180;23;20184;-92
2021/12/29 03:06:30;;;;;;;5.57;2.07;;;;;;;;;;6115195;23;20786;-92
2021/12/29 03:09:42;;;;;;;10.80;2.03;;;;;;;;;;6113451;23;20169;-92
2021/12/29 03:12:48;;;;;;;7.73;2.50;;;;;;;;;;6113011;23;20190;-92
2021/12/29 03:15:53;;;;;;;4.47;2.03;;;;;;;;;;6096386;23;20206;-93
2021/12/29 03:18:59;;;;;;;5.00;2.70;;;;;;;;;;6114323;23;20161;-93
2021/12/29 03:22:04;;;;;;;5.03;3.00;;;;;;;;;;6096671;23;20170;-91
2021/12/29 03:25:12;;;;;;;10.40;3.53;;;;;;;;;;6112716;23;20637;-93
2021/12/29 03:28:17;;;;;;;7.97;3.23;;;;;;;;;;6111939;23;20170;-91
2021/12/29 03:31:23;;;;;;;7.07;2.90;;;;;;;;;;6095285;23;20227;-92
2021/12/29 03:34:29;;;;;;;5.17;2.70;;;;;;;;;;6113590;23;20226;-92
2021/12/29 03:37:35;;;;;;;7.77;2.70;;;;;;;;;;6113581;23;20513;-92
2021/12/29 03:40:44;;;;;;;6.67;3.00;;;;;;;;;;6096899;23;20173;-91
2021/12/29 03:43:50;;;;;;;10.90;2.80;;;;;;;;;;6095914;23;20250;-92
2021/12/29 03:46:55;;;;;;;4.83;2.93;;;;;;;;;;6112489;23;20618;-92
2021/12/29 03:50:00;;;;;;;7.77;3.53;;;;;;;;;;6094783;23;20157;-92
2021/12/29 03:53:06;;;;;;;7.00;3.10;;;;;;;;;;6095668;23;20153;-91
2021/12/29 03:56:14;;;;;;;7.43;3.40;;;;;;;;;;6093894;23;20178;-92
2021/12/29 03:59:20;;;;;;;10.87;3.03;;;;;;;;;;6094827;23;20186;-92
2021/12/29 04:02:25;;;;;;;9.10;3.17;;;;;;;;;;6113426;23;20170;-93
2021/12/29 04:05:30;;;;;;;6.37;3.27;;;;;;;;;;6114182;23;20193;-92
2021/12/29 04:08:36;;;;;;;8.77;3.90;;;;;;;;;;6097526;23;20224;-93
2021/12/29 04:11:50;;;;;;;9.57;4.33;;;;;;;;;;6116641;23;20233;-92
2021/12/29 04:14:55;;;;;;;9.13;4.00;;;;;;;;;;6097129;23;20178;-92
2021/12/29 04:18:03;;;;;;;9.53;4.07;;;;;;;;;;6112770;23;20158;-92
2021/12/29 04:21:10;;;;;;;7.50;4.00;;;;;;;;;;6096138;23;20173;-92
2021/12/29 04:24:16;;;;;;;9.77;4.10;;;;;;;;;;6096488;23;20246;-92
2021/12/29 04:27:24;;;;;;;7.63;4.30;;;;;;;;;;6111752;23;20466;-92
2021/12/29 04:30:30;;;;;;;10.73;5.00;;;;;;;;;;6114182;23;20187;-93
2021/12/29 04:33:35;;;;;;;14.60;5.20;;;;;;;;;;6097278;23;20214;-92
2021/12/29 04:36:40;;;;;;;10.60;4.97;;;;;;;;;;6114513;23;20177;-91
2021/12/29 04:39:45;;;;;;;13.60;5.50;;;;;;;;;;6112138;23;20363;-92
2021/12/29 04:42:52;;;;;;;11.13;5.40;;;;;;;;;;6096110;23;20203;-92
2021/12/29 04:45:57;;;;;;;11.63;5.03;;;;;;;;;;6096955;23;20197;-93
2021/12/29 04:49:02;;;;;;;10.87;4.93;;;;;;;;;;6096275;23;20222;-92
2021/12/29 04:52:09;;;;;;;11.63;5.17;;;;;;;;;;6095567;23;20210;-93
2021/12/29 04:55:14;;;;;;;14.00;5.87;;;;;;;;;;6095360;23;20198;-92
2021/12/29 04:58:27;;;;;;;12.87;6.63;;;;;;;;;;6097351;23;20170;-91
2021/12/29 05:01:34;;;;;;;16.50;7.50;;;;;;;;;;6097358;23;20282;-94
2021/12/29 05:04:46;;;;;;;13.33;6.80;;;;;;;;;;6097492;23;20193;-91
2021/12/29 05:11:16;;;;;;;18.23;6.77;;;;;;;;;;6095190;23;20158;-92
2021/12/29 05:18:44;;;;;;;14.10;2.07;;;;;;;;;;6115443;23;20162;-91
2021/12/29 05:21:49;;;;;;;12.17;1.73;;;;;;;;;;6112359;23;20269;-92
2021/12/29 05:24:54;;;;;;;9.77;1.90;;;;;;;;;;6096600;23;20197;-92
2021/12/29 05:27:59;;;;;;;6.07;1.33;;;;;;;;;;6095800;23;20169;-93
2021/12/29 05:31:07;;;;;;;9.77;1.77;;;;;;;;;;6095070;23;20234;-91
2021/12/29 05:34:14;;;;;;;11.00;1.97;;;;;;;;;;6094107;23;20285;-92
2021/12/29 05:37:19;;;;;;;7.00;1.60;;;;;;;;;;6095058;23;20170;-92
2021/12/29 05:40:25;;;;;;;10.53;1.70;;;;;;;;;;6112729;23;20244;-90
2021/12/29 05:43:30;;;;;;;14.97;3.30;;;;;;;;;;6095795;23;20238;-91
2021/12/29 05:46:36;;;;;;;11.67;1.77;;;;;;;;;;6094663;23;20182;-93
2021/12/29 05:49:44;;;;;;;9.40;1.70;;;;;;;;;;6093892;23;20156;-92
2021/12/29 05:52:49;;;;;;;5.30;1.50;;;;;;;;;;6111912;23;20686;-92
2021/12/29 05:55:54;;;;;;;9.37;1.57;;;;;;;;;;6093026;23;20589;-92
2021/12/29 05:59:01;;;;;;;7.73;1.40;;;;;;;;;;6093376;23;20255;-92
2021/12/29 06:02:13;;;;;;;6.77;1.50;;;;;;;;;;6092642;23;20186;-91
2021/12/29 06:05:21;;;;;;;9.10;1.67;;;;;;;;;;6092249;23;20198;-93
2021/12/29 06:08:26;;;;;;;10.67;1.30;;;;;;;;;;6094723;23;20177;-91
2021/12/29 06:11:31;;;;;;;5.03;1.40;;;;;;;;;;6094994;23;20195;-91
2021/12/29 06:14:36;;;;;;;6.97;1.20;;;;;;;;;;6094942;23;20194;-92
2021/12/29 06:17:44;;;;;;;4.07;1.27;;;;;;;;;;6095229;23;20242;-91
2021/12/29 06:20:51;;;;;;;6.93;1.37;;;;;;;;;;6113612;23;20898;-92
2021/12/29 06:23:56;;;;;;;2.67;0.67;;;;;;;;;;6096002;23;20158;-92
2021/12/29 06:27:01;;;;;;;5.97;1.23;;;;;;;;;;6096906;23;20549;-92
2021/12/29 06:30:08;;;;;;;4.57;1.33;;;;;;;;;;6096744;23;20178;-92
2021/12/29 06:33:16;;;;;;;6.27;1.10;;;;;;;;;;6093953;23;20606;-93
2021/12/29 06:36:25;;;;;;;8.27;1.10;;;;;;;;;;6095730;23;20170;-91
2021/12/29 06:39:30;;;;;;;16.00;4.83;;;;;;;;;;6094917;23;20154;-92
2021/12/29 06:42:36;;;;;;;6.97;1.33;;;;;;;;;;6096351;23;20169;-92
2021/12/29 06:45:41;;;;;;;11.10;1.47;;;;;;;;;;6098437;23;20217;-91
2021/12/29 06:48:46;;;;;;;6.30;0.90;;;;;;;;;;6097818;23;20173;-92
2021/12/29 06:52:00;;;;;;;5.80;1.50;;;;;;;;;;6096219;23;20253;-93
2021/12/29 06:55:06;;;;;;;8.17;1.00;;;;;;;;;;6112389;23;20276;-91
2021/12/29 06:58:11;;;;;;;6.60;0.90;;;;;;;;;;6095822;23;20211;-91
2021/12/29 07:01:16;;;;;;;8.20;1.13;;;;;;;;;;6097141;23;20170;-91
2021/12/29 07:04:23;;;;;;;6.17;1.13;;;;;;;;;;6096174;23;20242;-92
2021/12/29 07:07:31;;;;;;;3.03;0.93;;;;;;;;;;6093772;23;20270;-92
2021/12/29 07:10:40;;;;;;;7.23;1.63;;;;;;;;;;6096503;23;20194;-91
2021/12/29 07:13:46;;;;;;;7.47;1.20;;;;;;;;;;6112810;23;20177;-93
2021/12/29 07:16:51;;;;;;;9.00;1.40;;;;;;;;;;6113715;23;20178;-92
2021/12/29 07:19:56;;;;;;;5.63;1.07;;;;;;;;;;6095586;23;20170;-94
2021/12/29 07:23:06;;;;;;;6.87;1.07;;;;;;;;;;6095016;23;20482;-92
2021/12/29 07:26:11;;;;;;;5.97;1.07;;;;;;;;;;6095103;23;20200;-94
2021/12/29 07:29:16;;;;;;;4.13;1.20;;;;;;;;;;6094433;23;20173;-91
2021/12/29 07:32:21;;;;;;;8.50;1.50;;;;;;;;;;6097513;23;20170;-92
2021/12/29 07:35:27;;;;;;;6.57;1.67;;;;;;;;;;6095320;23;20198;-92
2021/12/29 07:38:35;;;;;;;4.20;1.20;;;;;;;;;;6097748;23;20190;-92
2021/12/29 07:41:43;;;;;;;6.73;1.10;;;;;;;;;;6098413;23;20210;-92
2021/12/29 07:44:55;;;;;;;4.53;1.10;;;;;;;;;;6099517;23;20234;-92
2021/12/29 07:48:02;;;;;;;2.23;0.70;;;;;;;;;;6097773;23;20170;-92
2021/12/29 07:51:07;;;;;;;5.37;0.90;;;;;;;;;;6098074;23;20153;-93
2021/12/29 07:54:17;;;;;;;6.73;1.10;;;;;;;;;;6097525;23;20282;-93
2021/12/29 07:57:25;;;;;;;4.70;1.20;;;;;;;;;;6096816;23;20286;-93
2021/12/29 08:00:33;;;;;;;7.93;1.20;;;;;;;;;;6098677;23;20210;-93
2021/12/29 08:03:40;;;;;;;6.23;1.03;;;;;;;;;;6098421;23;20266;-92
2021/12/29 08:06:47;;;;;;;9.33;1.80;;;;;;;;;;6098918;23;20170;-92
2021/12/29 08:09:53;;;;;;;5.70;1.17;;;;;;;;;;6097170;23;20157;-92
2021/12/29 08:12:58;;;;;;;5.37;1.10;;;;;;;;;;6099067;23;20177;-92
2021/12/29 08:16:03;;;;;;;10.50;1.40;;;;;;;;;;6098349;23;20167;-92
2021/12/29 08:19:09;;;;;;;7.63;1.20;;;;;;;;;;6097724;23;20283;-91
2021/12/29 08:22:15;;;;;;;7.83;1.53;;;;;;;;;;6098953;23;20195;-92
2021/12/29 08:25:25;;;;;;;6.27;1.13;;;;;;;;;;6096895;23;20209;-92
2021/12/29 08:28:30;;;;;;;8.27;1.50;;;;;;;;;;6096443;23;20162;-91
2021/12/29 08:31:35;;;;;;;5.57;1.50;;;;;;;;;;6097160;23;20162;-92
2021/12/29 08:34:40;;;;;;;4.60;1.13;;;;;;;;;;6095495;23;20195;-91
2021/12/29 08:37:46;;;;;;;3.77;0.97;;;;;;;;;;6095989;23;20243;-92
2021/12/29 08:40:54;;;;;;;3.43;1.10;;;;;;;;;;6113414;23;20495;-92
2021/12/29 08:44:00;;;;;;;2.47;1.00;;;;;;;;;;6097102;23;20198;-92
2021/12/29 08:47:08;;;;;;;5.07;1.10;;;;;;;;;;6098797;23;20158;-92
2021/12/29 08:50:16;;;;;;;1.63;0.87;;;;;;;;;;6114644;23;20206;-92
2021/12/29 08:53:22;;;;;;;3.13;0.97;;;;;;;;;;6097084;23;20186;-91
2021/12/29 08:56:29;;;;;;;4.40;1.10;;;;;;;;;;6114404;23;20181;-92
2021/12/29 08:59:34;;;;;;;5.90;1.00;;;;;;;;;;6098084;23;20169;-91
2021/12/29 09:02:40;;;;;;;3.90;1.03;;;;;;;;;;6098186;23;20153;-92
2021/12/29 09:05:45;;;;;;;4.23;1.17;;;;;;;;;;6097779;23;20219;-93
2021/12/29 09:08:50;;;;;;;3.60;1.20;;;;;;;;;;6096965;23;20246;-91
2021/12/29 09:11:58;;;;;;;3.83;1.00;;;;;;;;;;6098108;23;20173;-91
2021/12/29 09:15:03;;;;;;;3.23;1.30;;;;;;;;;;6097788;23;20173;-93
2021/12/29 09:18:08;;;;;;;4.10;1.77;;;;;;;;;;6115888;23;20169;-92
2021/12/29 09:21:16;;;;;;;6.33;1.60;;;;;;;;;;6098427;23;20603;-92
2021/12/29 09:24:22;;;;;;;6.57;1.40;;;;;;;;;;6117048;23;20173;-91
2021/12/29 09:27:28;;;;;;;3.90;0.90;;;;;;;;;;6098109;23;20219;-92
2021/12/29 09:30:35;;;;;;;3.67;1.00;;;;;;;;;;6098047;23;20174;-93
2021/12/29 09:33:40;;;;;;;3.27;1.07;;;;;;;;;;6114113;23;20170;-92
2021/12/29 09:36:46;;;;;;;5.53;1.37;;;;;;;;;;6113248;23;20255;-92
2021/12/29 09:43:15;;;;;;;2.50;1.10;;;;;;;;;;6112559;23;20169;-91
2021/12/29 09:46:23;;;;;;;3.40;1.17;;;;;;;;;;6096388;23;20190;-91
2021/12/29 09:49:29;;;;;;;4.97;1.30;;;;;;;;;;6097647;23;20558;-93
2021/12/29 09:52:35;;;;;;;8.17;1.27;;;;;;;;;;6095749;23;20686;-92
2021/12/29 09:55:41;;;;;;;1.80;0.80;;;;;;;;;;6096033;23;20178;-92
2021/12/29 09:58:49;;;;;;;7.53;2.70;;;;;;;;;;6098042;23;20189;-92
2021/12/29 10:01:55;;;;;;;2.30;1.10;;;;;;;;;;6096766;23;20174;-92
2021/12/29 10:05:01;;;;;;;2.20;1.10;;;;;;;;;;6096624;23;20173;-92
2021/12/29 10:08:08;;;;;;;2.07;1.00;;;;;;;;;;6096837;23;20576;-92
2021/12/29 10:11:14;;;;;;;7.13;2.20;;;;;;;;;;6111460;23;20206;-94
2021/12/29 10:17:43;;;;;;;1.83;1.00;;;;;;;;;;6096427;23;20166;-93
2021/12/29 10:24:09;;;;;;;2.40;1.00;;;;;;;;;;6113941;23;20236;-92
2021/12/29 10:27:23;;;;;;;1.87;0.90;;;;;;;;;;6096326;23;20190;-92
2021/12/29 10:30:33;;;;;;;6.60;1.40;;;;;;;;;;6097851;23;20174;-92
2021/12/29 10:33:39;;;;;;;4.13;1.00;;;;;;;;;;6097265;23;20169;-93
2021/12/29 10:36:47;;;;;;;1.57;0.87;;;;;;;;;;6094817;23;20174;-91
2021/12/29 10:39:56;;;;;;;3.47;1.10;;;;;;;;;;6095677;23;20235;-92
2021/12/29 10:43:02;;;;;;;2.00;0.97;;;;;;;;;;6111844;23;20174;-92
2021/12/29 10:46:18;;;;;;;2.00;0.80;;;;;;;;;;6093680;23;20665;-91
2021/12/29 10:49:24;;;;;;;3.53;0.97;;;;;;;;;;6095177;23;20170;-91
2021/12/29 10:52:30;;;;;;;2.80;0.90;;;;;;;;;;6093823;23;20507;-91
2021/12/29 10:55:36;;;;;;;3.43;0.80;;;;;;;;;;6093794;23;20177;-90
2021/12/29 10:58:40;;;;;;;1.85;0.80;;;;;;;;;;6093760;23;20157;-92
2021/12/29 11:01:47;;;;;;;2.63;1.37;;;;;;;;;;6097152;23;20183;-93
2021/12/29 11:04:57;;;;;;;2.90;1.20;;;;;;;;;;6097713;23;20232;-90
2021/12/29 11:08:06;;;;;;;3.63;0.80;;;;;;;;;;6096825;23;20621;-89
2021/12/29 11:11:13;;;;;;;1.57;1.00;;;;;;;;;;6095166;23;20173;-90
2021/12/29 11:14:21;;;;;;;2.10;0.90;;;;;;;;;;6095394;23;20149;-91
2021/12/29 11:17:30;;;;;;;6.73;1.80;;;;;;;;;;6094183;23;20177;-89
2021/12/29 11:20:36;;;;;;;3.33;0.90;;;;;;;;;;6112929;23;20170;-90
2021/12/29 11:23:50;;;;;;;3.90;1.30;;;;;;;;;;6095382;23;20169;-90
2021/12/29 11:26:56;;;;;;;4.00;1.02;;;;;;;;;;6093214;23;20201;-90
2021/12/29 11:30:03;;;;;;;1.57;0.80;;;;;;;;;;6092010;23;20173;-90
2021/12/29 11:33:11;;;;;;;2.47;0.80;;;;;;;;;;6094185;23;20216;-90
2021/12/29 11:36:21;;;;;;;3.42;1.02;;;;;;;;;;6095280;23;20161;-92
2021/12/29 11:39:28;;;;;;;7.90;0.90;;;;;;;;;;6111917;23;20178;-91
2021/12/29 11:42:33;;;;;;;1.67;0.77;;;;;;;;;;6097119;23;20181;-91
2021/12/29 11:45:40;;;;;;;4.00;1.10;;;;;;;;;;6095652;23;20321;-89
2021/12/29 12:12:36;;;;;;;1.83;0.95;;;;;;;;;;6160224;23;20204;-92
2021/12/29 12:15:42;;;;;;;4.32;1.00;;;;;;;;;;6186830;23;20167;-92
2021/12/29 12:18:50;;;;;;;3.13;1.10;;;;;;;;;;6185518;23;20211;-92
2021/12/29 12:22:04;;;;;;;3.17;1.45;;;;;;;;;;6184705;23;20180;-93
2021/12/29 12:25:09;;;;;;;4.50;1.00;;;;;;;;;;6185588;23;20164;-92
2021/12/29 12:28:23;;;;;;;3.10;1.20;;;;;;;;;;6184545;23;20180;-91
2021/12/29 12:31:30;;;;;;;2.80;1.27;;;;;;;;;;6185220;23;20168;-90
2021/12/29 12:34:36;;;;;;;3.65;1.40;;;;;;;;;;6186861;23;20167;-91
2021/12/29 12:37:42;;;;;;;7.07;1.20;;;;;;;;;;6184966;23;20172;-91
2021/12/29 12:40:47;;;;;;;5.68;1.15;;;;;;;;;;6188013;23;20164;-91
2021/12/29 12:43:57;;;;;;;5.28;1.90;;;;;;;;;;6185940;23;20159;-89
2021/12/29 12:47:10;;;;;;;7.78;1.83;;;;;;;;;;6186314;23;20199;-91
2021/12/29 12:50:24;;;;;;;3.70;1.70;;;;;;;;;;6185676;23;20164;-90
2021/12/29 12:53:30;;;;;;;5.22;2.10;;;;;;;;;;6185245;23;20167;-92
2021/12/29 12:56:46;;;;;;;7.05;2.50;;;;;;;;;;6186793;23;20291;-91
2021/12/29 12:59:55;;;;;;;5.47;2.13;;;;;;;;;;6185974;23;20168;-91
2021/12/29 13:03:04;;;;;;;11.60;3.38;;;;;;;;;;6184477;23;20180;-90
2021/12/29 13:06:13;;;;;;;6.97;3.13;;;;;;;;;;6182026;23;20197;-91
2021/12/29 13:09:20;;;;;;;6.15;1.60;;;;;;;;;;6186842;23;20223;-92
2021/12/29 13:12:29;;;;;;;4.28;1.77;;;;;;;;;;6173547;23;20299;-91
2021/12/29 13:15:36;;;;;;;3.45;1.60;;;;;;;;;;6171113;23;20160;-90
2021/12/29 13:18:41;;;;;;;3.63;1.33;;;;;;;;;;6171704;23;20468;-91
2021/12/29 13:21:51;;;;;;;2.75;1.58;;;;;;;;;;6175932;23;20220;-90
2021/12/29 13:25:05;;;;;;;5.70;1.70;;;;;;;;;;6172669;23;20172;-90
2021/12/29 13:28:13;;;;;;;5.25;1.98;;;;;;;;;;6169975;23;20196;-90
2021/12/29 13:31:20;;;;;;;3.95;1.77;;;;;;;;;;6171144;23;20300;-90
2021/12/29 13:34:33;;;;;;;9.85;2.35;;;;;;;;;;6171650;23;20270;-90
2021/12/29 13:37:39;;;;;;;4.75;1.48;;;;;;;;;;6174841;23;20177;-91
2021/12/29 13:40:46;;;;;;;4.00;1.55;;;;;;;;;;6174155;23;20168;-91
2021/12/29 13:46:45;;;;;;;3.33;1.40;;;;;;;;;;6169889;23;20205;-92
2021/12/29 13:49:51;;;;;;;5.72;1.60;;;;;;;;;;6155623;23;20177;-92
2021/12/29 13:52:58;;;;;;;5.72;2.38;;;;;;;;;;6154690;23;20164;-92
2021/12/29 13:56:08;;;;;;;7.28;3.42;;;;;;;;;;6154583;23;20169;-92
2021/12/29 13:59:14;;;;;;;5.63;1.95;;;;;;;;;;6150586;23;20248;-93
2021/12/29 14:02:21;;;;;;;2.83;1.52;;;;;;;;;;6153802;23;20266;-94
2021/12/29 14:08:55;;;;;;;6.15;2.88;;;;;;;;;;6153316;23;20244;-92
2021/12/29 14:12:06;;;;;;;9.57;2.28;;;;;;;;;;6153252;23;20192;-92
2021/12/29 14:15:16;;;;;;;5.32;2.25;;;;;;;;;;6154629;23;20152;-93
2021/12/29 14:18:43;;;;;;;8.18;2.38;;;;;;;;;;6152962;23;20260;-92
2021/12/29 14:21:48;;;;;;;6.57;2.20;;;;;;;;;;6154326;23;20188;-93
2021/12/29 14:24:54;;;;;;;5.25;3.00;;;;;;;;;;6153682;23;20167;-92
2021/12/29 14:27:59;;;;;;;7.93;2.58;;;;;;;;;;6155101;23;20257;-92
2021/12/29 14:31:08;;;;;;;7.97;3.20;;;;;;;;;;6155045;23;20173;-92
2021/12/29 15:00:41;;;;;;;8.45;3.00;;;;;;;;;;6192008;23;20208;-91
2021/12/29 15:03:54;;;;;;;9.30;3.22;;;;;;;;;;6182920;23;20172;-91
2021/12/29 15:06:59;;;;;;;9.32;2.85;;;;;;;;;;6183858;23;20199;-92
2021/12/29 15:10:09;;;;;;;14.60;5.05;;;;;;;;;;6183584;23;20500;-91
2021/12/29 15:13:17;;;;;;;6.50;3.15;;;;;;;;;;6182396;23;20235;-92
2021/12/29 15:16:27;;;;;;;7.10;3.13;;;;;;;;;;6183126;23;20265;-91
2021/12/29 15:19:33;;;;;;;10.73;3.17;;;;;;;;;;6182194;23;20487;-91
2021/12/29 15:22:38;;;;;;;9.32;3.85;;;;;;;;;;6183400;23;20201;-92
2021/12/29 15:25:44;;;;;;;8.63;3.47;;;;;;;;;;6184286;23;20192;-93
2021/12/29 15:28:56;;;;;;;11.85;4.32;;;;;;;;;;6182090;23;20243;-93
2021/12/29 15:32:02;;;;;;;8.35;2.72;;;;;;;;;;6182461;23;20167;-92
2021/12/29 15:35:08;;;;;;;11.77;3.25;;;;;;;;;;6182110;23;20168;-91
2021/12/29 15:38:13;;;;;;;6.43;2.15;;;;;;;;;;6182961;23;20151;-92
2021/12/29 15:41:20;;;;;;;5.45;2.00;;;;;;;;;;6182451;23;20277;-92
2021/12/29 15:44:25;;;;;;;3.92;1.60;;;;;;;;;;6182063;23;20176;-92
2021/12/29 15:47:32;;;;;;;4.45;1.60;;;;;;;;;;6182134;23;20247;-92
2021/12/29 15:50:38;;;;;;;5.93;1.60;;;;;;;;;;6182007;23;20163;-91
2021/12/29 15:53:44;;;;;;;5.13;1.90;;;;;;;;;;6182161;23;20217;-91
2021/12/29 15:56:49;;;;;;;5.53;2.20;;;;;;;;;;6183786;23;20179;-92
2021/12/29 15:59:54;;;;;;;4.15;1.70;;;;;;;;;;6172947;23;20235;-92
2021/12/29 16:03:01;;;;;;;3.37;1.60;;;;;;;;;;6172750;23;20501;-92
2021/12/29 16:06:07;;;;;;;4.10;1.83;;;;;;;;;;6172651;23;20164;-92
2021/12/29 16:09:15;;;;;;;6.45;1.73;;;;;;;;;;6170830;23;20184;-93
2021/12/29 16:15:40;;;;;;;6.15;2.47;;;;;;;;;;6171021;23;20249;-94
2021/12/29 16:18:47;;;;;;;10.88;3.08;;;;;;;;;;6172926;23;20168;-92
2021/12/29 16:21:52;;;;;;;9.38;4.03;;;;;;;;;;6170942;23;20180;-92
2021/12/29 16:24:57;;;;;;;13.30;4.03;;;;;;;;;;6173470;23;20236;-93
2021/12/29 16:28:02;;;;;;;8.97;3.47;;;;;;;;;;6173954;23;20255;-92
2021/12/29 16:31:08;;;;;;;13.52;5.70;;;;;;;;;;6172817;23;20264;-92
2021/12/29 16:34:14;;;;;;;5.95;3.08;;;;;;;;;;6173061;23;20180;-92
2021/12/29 16:37:21;;;;;;;8.10;3.00;;;;;;;;;;6172582;23;20220;-92
2021/12/29 16:40:28;;;;;;;7.90;3.20;;;;;;;;;;6169833;23;20161;-92
2021/12/29 16:43:35;;;;;;;11.57;3.30;;;;;;;;;;6170077;23;20164;-92
2021/12/29 16:46:41;;;;;;;7.33;3.30;;;;;;;;;;6172082;23;20195;-92
2021/12/29 16:49:49;;;;;;;8.85;3.90;;;;;;;;;;6174628;23;20165;-92
2021/12/29 16:52:55;;;;;;;4.18;2.00;;;;;;;;;;6173927;23;20170;-91
2021/12/29 16:56:00;;;;;;;6.00;1.70;;;;;;;;;;6172911;23;20172;-92
2021/12/29 16:59:06;;;;;;;5.77;2.70;;;;;;;;;;6178314;23;20179;-91
2021/12/29 17:02:13;;;;;;;6.78;2.85;;;;;;;;;;6183949;23;20847;-91
2021/12/29 17:05:22;;;;;;;15.63;5.53;;;;;;;;;;6185740;23;20273;-92
2021/12/29 17:08:27;;;;;;;13.50;4.18;;;;;;;;;;6183973;23;20218;-92
2021/12/29 17:11:33;;;;;;;8.02;3.17;;;;;;;;;;6184500;23;20176;-92
2021/12/29 17:14:38;;;;;;;49.55;17.77;;;;;;;;;;6185036;23;20250;-93
2021/12/29 17:17:43;;;;;;;35.83;11.37;;;;;;;;;;6183184;23;20171;-93
2021/12/29 17:20:50;;;;;;;45.10;14.05;;;;;;;;;;6183596;23;20160;-92
2021/12/29 17:23:56;;;;;;;70.70;24.07;;;;;;;;;;6186363;23;20172;-92
2021/12/29 17:27:01;;;;;;;41.37;14.93;;;;;;;;;;6185263;23;20311;-92
2021/12/29 17:30:08;;;;;;;21.60;7.27;;;;;;;;;;6184726;23;20690;-91
2021/12/29 17:33:13;;;;;;;16.17;6.27;;;;;;;;;;6183957;23;20623;-91
2021/12/29 17:36:20;;;;;;;24.47;6.97;;;;;;;;;;6184275;23;20484;-92
2021/12/29 17:39:26;;;;;;;24.07;10.03;;;;;;;;;;6183422;23;20244;-92
2021/12/29 17:42:31;;;;;;;23.88;9.82;;;;;;;;;;6183847;23;20242;-92
2021/12/29 17:45:37;;;;;;;17.43;6.23;;;;;;;;;;6185533;23;20192;-93
2021/12/29 17:48:42;;;;;;;14.90;6.53;;;;;;;;;;6185652;23;20211;-92
2021/12/29 17:51:49;;;;;;;24.50;8.63;;;;;;;;;;6183053;23;20172;-92
2021/12/29 17:54:59;;;;;;;19.50;8.40;;;;;;;;;;6185436;23;20152;-91
2021/12/29 17:58:06;;;;;;;23.90;10.00;;;;;;;;;;6182397;23;20176;-92
2021/12/29 18:01:12;;;;;;;16.57;7.57;;;;;;;;;;6181400;23;20168;-92
2021/12/29 18:04:18;;;;;;;18.50;7.13;;;;;;;;;;6183729;23;20168;-92
2021/12/29 18:07:25;;;;;;;20.73;9.13;;;;;;;;;;6181523;23;20203;-93
2021/12/29 18:10:30;;;;;;;23.23;8.03;;;;;;;;;;6181057;23;20159;-91
2021/12/29 18:13:35;;;;;;;22.67;9.20;;;;;;;;;;6180380;23;20623;-92
2021/12/29 18:16:40;;;;;;;18.97;8.80;;;;;;;;;;6179150;23;20172;-91
2021/12/29 18:19:45;;;;;;;33.53;14.43;;;;;;;;;;6180970;23;20160;-92
2021/12/29 18:22:56;;;;;;;13.03;5.80;;;;;;;;;;6183300;23;20171;-92
2021/12/29 18:26:01;;;;;;;14.20;5.80;;;;;;;;;;6183216;23;20175;-93
2021/12/29 18:29:07;;;;;;;8.97;4.50;;;;;;;;;;6182936;23;20195;-93
2021/12/29 18:32:12;;;;;;;11.37;4.77;;;;;;;;;;6182809;23;20156;-93
2021/12/29 18:35:17;;;;;;;11.37;4.43;;;;;;;;;;6182190;23;20180;-91
2021/12/29 18:38:24;;;;;;;10.97;5.13;;;;;;;;;;6183954;23;20243;-92
2021/12/29 18:41:30;;;;;;;14.83;4.53;;;;;;;;;;6183854;23;20179;-91
2021/12/29 18:44:35;;;;;;;10.87;4.97;;;;;;;;;;6183546;23;20180;-93
2021/12/29 18:47:40;;;;;;;13.23;6.13;;;;;;;;;;6184668;23;20684;-91
2021/12/29 18:50:46;;;;;;;13.07;5.17;;;;;;;;;;6183544;23;20275;-92
2021/12/29 18:53:52;;;;;;;9.03;5.00;;;;;;;;;;6184707;23;20164;-91
2021/12/29 18:56:59;;;;;;;13.20;5.33;;;;;;;;;;6183741;23;20500;-92
2021/12/29 19:00:05;;;;;;;17.30;6.17;;;;;;;;;;6170958;23;20525;-92
2021/12/29 19:03:11;;;;;;;12.37;5.73;;;;;;;;;;6171880;23;20164;-91
2021/12/29 19:06:17;;;;;;;10.80;5.70;;;;;;;;;;6172464;23;20164;-92
2021/12/29 19:09:23;;;;;;;14.23;5.90;;;;;;;;;;6171361;23;20240;-93
2021/12/29 19:12:29;;;;;;;11.10;5.53;;;;;;;;;;6174040;23;20156;-92
2021/12/29 19:15:35;;;;;;;16.33;6.13;;;;;;;;;;6173580;23;20256;-92
2021/12/29 19:18:40;;;;;;;17.37;6.83;;;;;;;;;;6175982;23;20208;-92
2021/12/29 19:21:46;;;;;;;13.33;6.07;;;;;;;;;;6173772;23;20216;-90
2021/12/29 19:24:53;;;;;;;13.07;5.77;;;;;;;;;;6175434;23;20228;-92
2021/12/29 19:27:58;;;;;;;13.93;6.40;;;;;;;;;;6174961;23;20181;-92
2021/12/29 19:31:05;;;;;;;14.77;6.83;;;;;;;;;;6176171;23;20189;-92
2021/12/29 19:34:11;;;;;;;16.53;8.07;;;;;;;;;;6175187;23;20172;-93
2021/12/29 19:37:16;;;;;;;15.27;6.50;;;;;;;;;;6176511;23;20229;-92
2021/12/29 19:40:27;;;;;;;16.83;7.10;;;;;;;;;;6177002;23;20173;-93
2021/12/29 19:43:33;;;;;;;12.40;5.87;;;;;;;;;;6175450;23;20231;-92
2021/12/29 19:46:38;;;;;;;15.60;7.07;;;;;;;;;;6177177;23;20192;-92
2021/12/29 19:49:44;;;;;;;14.77;7.47;;;;;;;;;;6176831;23;20180;-91
2021/12/29 19:52:49;;;;;;;20.47;6.83;;;;;;;;;;6178225;23;20168;-90